Bridgetown, Barbados
Current Conditions -  °F | °C
As of 12:00 PM on Monday 24 Nov 2014 (Local Time) from TBPB Reporting Station
Few Clouds Few Clouds  
Wind Chill: 86°   Ceiling: Unl
Heat Index: 93°   Visibility: 6mi
Dew Point: 73°   Wind: 23mph
Humidity: 66%   Direction: 70°ENE
Pressure: 29.97"   Gusts: NA
Location:  13.11°N, 59.61°W
Report Text: TBPB 241600Z 07020KT 9999 FEW020 30/23 Q1015 NOSIG
Loading
Personal Weather Stations






























Interactive Weather Map New forecast layout! Learn more

10-Day Weather Forecast

Advertisements
Track Severe Weather on mobile